createdAt,value
2019-02-04T00:01:56.488Z,12.50
2019-02-04T00:04:25.440Z,9.53
2019-02-04T00:06:54.362Z,12.00
2019-02-04T00:09:23.236Z,7.10
2019-02-04T00:11:52.459Z,8.90
2019-02-04T00:14:21.418Z,6.67
2019-02-04T00:16:51.206Z,7.47
2019-02-04T00:19:20.068Z,5.60
2019-02-04T00:21:48.919Z,9.80
2019-02-04T00:24:17.708Z,4.53
2019-02-04T00:26:51.658Z,8.03
2019-02-04T00:29:17.251Z,6.67
2019-02-04T00:31:46.034Z,11.17
2019-02-04T00:34:14.808Z,9.83
2019-02-04T00:36:43.668Z,6.47
2019-02-04T00:39:12.601Z,10.07
2019-02-04T00:41:41.669Z,7.12
2019-02-04T00:44:10.456Z,8.73
2019-02-04T00:46:39.255Z,6.10
2019-02-04T00:49:08.105Z,18.47
2019-02-04T00:51:36.889Z,10.23
2019-02-04T00:54:06.124Z,9.80
2019-02-04T00:56:35.264Z,7.77
2019-02-04T00:59:04.705Z,6.37
2019-02-04T01:01:33.649Z,6.27
2019-02-04T01:04:02.713Z,7.47
2019-02-04T01:06:31.570Z,10.13
2019-02-04T01:09:00.512Z,10.72
2019-02-04T01:11:29.704Z,11.90
2019-02-04T01:13:58.633Z,8.05
2019-02-04T01:16:27.539Z,10.80
2019-02-04T01:18:56.297Z,8.40
2019-02-04T01:21:25.162Z,5.33
2019-02-04T01:23:53.940Z,8.17
2019-02-04T01:26:23.136Z,10.13
2019-02-04T01:28:52.008Z,7.40
2019-02-04T01:31:20.900Z,8.33
2019-02-04T01:33:50.524Z,11.20
2019-02-04T01:36:19.414Z,9.80
2019-02-04T01:38:48.207Z,7.72
2019-02-04T01:41:17.071Z,7.00
2019-02-04T01:43:46.147Z,6.37
2019-02-04T01:46:14.928Z,7.07
2019-02-04T01:48:43.709Z,8.43
2019-02-04T01:51:12.507Z,4.17
2019-02-04T01:53:41.279Z,9.33
2019-02-04T01:56:10.082Z,8.87
2019-02-04T01:58:38.854Z,11.10
2019-02-04T02:01:07.712Z,12.53
2019-02-04T02:03:36.572Z,9.87
2019-02-04T02:06:05.489Z,7.93
2019-02-04T02:08:34.403Z,10.03
2019-02-04T02:11:03.317Z,8.30
2019-02-04T02:13:32.204Z,9.03
2019-02-04T02:16:01.084Z,10.47
2019-02-04T02:18:30.000Z,7.47
2019-02-04T02:20:58.773Z,5.27
2019-02-04T02:23:27.655Z,7.80
2019-02-04T02:25:56.520Z,8.23
2019-02-04T02:28:25.309Z,6.73
2019-02-04T02:30:55.190Z,7.87
2019-02-04T02:33:24.159Z,10.90
2019-02-04T02:35:52.945Z,8.50
2019-02-04T02:38:22.205Z,7.80
2019-02-04T02:40:51.071Z,9.40
2019-02-04T02:43:19.876Z,6.57
2019-02-04T02:45:48.687Z,12.67
2019-02-04T02:48:17.679Z,10.17
2019-02-04T02:50:46.457Z,14.07
2019-02-04T02:53:15.278Z,9.33
2019-02-04T02:55:44.055Z,4.93
2019-02-04T02:58:12.842Z,6.17
2019-02-04T03:00:41.694Z,7.77
2019-02-04T03:03:10.561Z,10.40
2019-02-04T03:05:39.396Z,7.83
2019-02-04T03:08:08.341Z,18.33
2019-02-04T03:10:37.197Z,8.90
2019-02-04T03:13:06.344Z,9.67
2019-02-04T03:15:35.335Z,10.87
2019-02-04T03:18:04.319Z,9.47
2019-02-04T03:20:33.087Z,7.50
2019-02-04T03:23:02.129Z,8.67
2019-02-04T03:25:31.166Z,9.67
2019-02-04T03:28:00.032Z,8.77
2019-02-04T03:30:31.414Z,10.55
2019-02-04T03:33:00.345Z,8.37
2019-02-04T03:35:29.138Z,12.03
2019-02-04T03:37:58.409Z,8.20
2019-02-04T03:40:29.429Z,6.62
2019-02-04T03:42:58.388Z,6.80
2019-02-04T03:45:27.606Z,9.10
2019-02-04T03:48:04.128Z,10.37
2019-02-04T03:50:27.952Z,11.12
2019-02-04T03:52:57.728Z,9.58
2019-02-04T03:55:26.774Z,10.20
2019-02-04T03:57:55.738Z,11.53
2019-02-04T04:00:31.578Z,6.97
2019-02-04T04:03:00.388Z,12.67
2019-02-04T04:05:29.712Z,6.07
2019-02-04T04:07:58.591Z,11.40
2019-02-04T04:10:28.517Z,11.25
2019-02-04T04:12:57.333Z,8.27
2019-02-04T04:15:26.267Z,8.13
2019-02-04T04:17:55.140Z,11.07
2019-02-04T04:20:24.198Z,15.07
2019-02-04T04:22:53.168Z,11.00
2019-02-04T04:25:22.042Z,8.93
2019-02-04T04:27:50.965Z,10.47
2019-02-04T04:30:22.492Z,13.93
2019-02-04T04:32:51.431Z,10.53
2019-02-04T04:35:20.392Z,11.87
2019-02-04T04:37:49.367Z,10.93
2019-02-04T04:40:18.513Z,10.72
2019-02-04T04:42:47.660Z,6.83
2019-02-04T04:45:18.802Z,8.23
2019-02-04T04:47:48.028Z,12.17
2019-02-04T04:50:17.387Z,9.60
2019-02-04T04:52:46.672Z,10.20
2019-02-04T04:55:18.519Z,8.60
2019-02-04T04:57:47.320Z,10.80
2019-02-04T05:00:18.751Z,5.63
2019-02-04T05:02:47.689Z,6.37
2019-02-04T05:05:16.726Z,13.33
2019-02-04T05:07:45.602Z,9.33
2019-02-04T05:10:16.406Z,7.95
2019-02-04T05:12:45.355Z,6.70
2019-02-04T05:15:16.906Z,12.50
2019-02-04T05:17:45.892Z,6.03
2019-02-04T05:20:15.500Z,7.17
2019-02-04T05:22:44.360Z,11.83
2019-02-04T05:25:13.931Z,6.00
2019-02-04T05:27:42.820Z,10.53
2019-02-04T05:30:14.545Z,9.20
2019-02-04T05:32:43.427Z,9.80
2019-02-04T05:35:12.562Z,8.75
2019-02-04T05:37:41.422Z,12.67
2019-02-04T05:40:11.764Z,10.20
2019-02-04T05:42:40.624Z,6.47
2019-02-04T05:45:10.564Z,6.43
2019-02-04T05:47:39.431Z,11.80
2019-02-04T05:50:11.147Z,10.57
2019-02-04T05:52:40.019Z,7.97
2019-02-04T05:55:09.893Z,8.93
2019-02-04T05:57:39.070Z,10.07
2019-02-04T06:00:09.356Z,10.10
2019-02-04T06:02:38.356Z,10.60
2019-02-04T06:05:08.673Z,15.80
2019-02-04T06:07:37.652Z,12.07
2019-02-04T06:10:07.589Z,15.30
2019-02-04T06:12:36.739Z,8.83
2019-02-04T06:15:07.244Z,16.10
2019-02-04T06:17:36.040Z,9.67
2019-02-04T06:20:06.699Z,12.40
2019-02-04T06:22:35.709Z,11.90
2019-02-04T06:25:05.098Z,12.77
2019-02-04T06:27:33.902Z,12.57
2019-02-04T06:30:03.735Z,11.55
2019-02-04T06:32:34.564Z,10.70
2019-02-04T06:35:04.303Z,10.18
2019-02-04T06:37:33.863Z,12.70
2019-02-04T06:40:04.575Z,12.43
2019-02-04T06:42:34.035Z,8.58
2019-02-04T06:45:03.028Z,15.90
2019-02-04T06:47:31.830Z,11.23
2019-02-04T06:50:00.677Z,8.50
2019-02-04T06:52:29.479Z,12.27
2019-02-04T06:54:58.659Z,18.77
2019-02-04T06:57:27.450Z,14.33
2019-02-04T06:59:56.276Z,13.63
2019-02-04T07:02:25.071Z,13.50
2019-02-04T07:04:53.888Z,12.70
2019-02-04T07:07:22.695Z,17.40
2019-02-04T07:09:52.017Z,17.23
2019-02-04T07:12:20.820Z,17.80
2019-02-04T07:14:49.613Z,10.60
2019-02-04T07:17:18.546Z,11.70
2019-02-04T07:19:47.339Z,16.90
2019-02-04T07:22:16.209Z,13.47
2019-02-04T07:24:44.997Z,10.70
2019-02-04T07:27:13.787Z,14.60
2019-02-04T07:29:42.577Z,13.87
2019-02-04T07:32:11.524Z,19.20
2019-02-04T07:34:40.476Z,17.60
2019-02-04T07:37:09.350Z,10.60
2019-02-04T07:39:38.140Z,25.90
2019-02-04T07:42:07.210Z,14.07
2019-02-04T07:44:36.676Z,16.55
2019-02-04T07:47:05.735Z,15.18
2019-02-04T07:49:35.620Z,11.60
2019-02-04T07:52:04.656Z,18.10
2019-02-04T07:54:33.516Z,18.83
2019-02-04T07:57:02.602Z,24.13
2019-02-04T07:59:31.477Z,18.03
2019-02-04T08:02:00.518Z,13.97
2019-02-04T08:04:29.314Z,16.50
2019-02-04T08:06:58.206Z,18.70
2019-02-04T08:09:27.075Z,17.27
2019-02-04T08:11:56.172Z,20.00
2019-02-04T08:14:24.998Z,18.50
2019-02-04T08:16:53.900Z,17.00
2019-02-04T08:19:24.440Z,15.20
2019-02-04T08:21:53.254Z,16.57
2019-02-04T08:24:22.040Z,24.53
2019-02-04T08:26:51.204Z,19.83
2019-02-04T08:29:20.149Z,20.53
2019-02-04T08:31:49.104Z,19.33
2019-02-04T08:34:17.965Z,21.43
2019-02-04T08:36:46.825Z,20.73
2019-02-04T08:39:15.746Z,20.10
2019-02-04T08:41:44.899Z,21.77
2019-02-04T08:44:13.953Z,16.10
2019-02-04T08:46:42.733Z,24.07
2019-02-04T08:49:11.545Z,25.20
2019-02-04T08:51:40.424Z,18.33
2019-02-04T08:54:09.931Z,19.87
2019-02-04T08:56:38.794Z,24.23
2019-02-04T08:59:07.613Z,17.57
2019-02-04T09:01:37.577Z,19.70
2019-02-04T09:04:06.629Z,19.37
2019-02-04T09:06:35.601Z,17.50
2019-02-04T09:09:08.057Z,18.17
2019-02-04T09:11:37.471Z,14.93
2019-02-04T09:14:06.977Z,16.73
2019-02-04T09:16:35.812Z,17.00
2019-02-04T09:19:05.065Z,15.40
2019-02-04T09:21:34.025Z,16.30
2019-02-04T09:24:02.973Z,19.25
2019-02-04T09:26:31.845Z,21.33
2019-02-04T09:29:00.940Z,13.93
2019-02-04T09:31:29.818Z,20.10
2019-02-04T09:33:58.777Z,28.62
2019-02-04T09:36:27.713Z,15.87
2019-02-04T09:38:56.686Z,13.17
2019-02-04T09:41:25.554Z,15.63
2019-02-04T09:43:54.788Z,13.80
2019-02-04T09:46:23.667Z,20.43
2019-02-04T09:48:52.865Z,18.23
2019-02-04T09:51:21.723Z,23.60
2019-02-04T09:53:50.515Z,21.97
2019-02-04T09:56:19.399Z,19.60
2019-02-04T09:58:48.212Z,14.93
2019-02-04T10:01:17.174Z,16.20
2019-02-04T10:03:45.975Z,15.07
2019-02-04T10:06:14.916Z,18.40
2019-02-04T10:08:43.792Z,17.13
2019-02-04T10:11:13.453Z,15.58
2019-02-04T10:13:43.178Z,13.15
2019-02-04T10:16:12.347Z,17.60
2019-02-04T10:18:41.279Z,18.10
2019-02-04T10:21:10.339Z,14.17
2019-02-04T10:23:39.169Z,16.73
2019-02-04T10:26:07.966Z,12.60
2019-02-04T10:28:37.133Z,17.70
2019-02-04T10:31:06.084Z,13.87
2019-02-04T10:33:35.015Z,17.75
2019-02-04T10:36:03.919Z,16.83
2019-02-04T10:38:32.654Z,16.67
2019-02-04T10:41:01.619Z,14.07
2019-02-04T10:43:30.981Z,9.50
2019-02-04T10:45:59.814Z,11.93
2019-02-04T10:48:28.652Z,11.60
2019-02-04T10:50:57.651Z,9.90
2019-02-04T10:53:26.487Z,10.70
2019-02-04T10:55:55.375Z,15.37
2019-02-04T10:58:24.298Z,13.60
2019-02-04T11:00:53.330Z,11.40
2019-02-04T11:03:22.321Z,13.03
2019-02-04T11:05:51.379Z,13.40
2019-02-04T11:08:20.284Z,10.95
2019-02-04T11:10:49.143Z,8.87
2019-02-04T11:13:19.015Z,11.57
2019-02-04T11:15:48.706Z,8.87
2019-02-04T11:18:17.931Z,9.17
2019-02-04T11:20:57.707Z,11.38
2019-02-04T11:23:17.797Z,13.90
2019-02-04T11:25:46.917Z,12.33
2019-02-04T11:28:16.457Z,13.17
2019-02-04T11:30:49.118Z,9.00
2019-02-04T11:33:18.134Z,12.67
2019-02-04T11:35:47.186Z,8.30
2019-02-04T11:38:16.535Z,9.05
2019-02-04T11:40:46.389Z,6.15
2019-02-04T11:43:15.603Z,3.30
2019-02-04T11:45:44.869Z,3.10
2019-02-04T11:48:14.741Z,6.23
2019-02-04T11:50:43.934Z,5.70
2019-02-04T11:53:12.957Z,4.07
2019-02-04T11:55:41.884Z,3.10
2019-02-04T11:58:10.913Z,2.40
2019-02-04T12:00:40.255Z,3.00
2019-02-04T12:03:10.707Z,3.97
2019-02-04T12:05:39.629Z,4.50
2019-02-04T12:08:08.886Z,4.37
2019-02-04T12:10:58.400Z,2.57
2019-02-04T12:13:27.184Z,2.63
2019-02-04T12:15:58.597Z,4.60
2019-02-04T12:18:27.460Z,2.37
2019-02-04T12:20:56.449Z,3.10
2019-02-04T12:23:25.524Z,2.67
2019-02-04T12:25:54.319Z,2.83
2019-02-04T12:28:23.219Z,6.53
2019-02-04T12:30:52.093Z,3.57
2019-02-04T12:33:21.045Z,3.60
2019-02-04T12:35:49.964Z,2.70
2019-02-04T12:38:19.130Z,5.60
2019-02-04T12:40:47.881Z,4.03
2019-02-04T12:43:21.030Z,2.70
2019-02-04T12:45:48.432Z,4.03
2019-02-04T12:48:17.973Z,4.67
2019-02-04T12:50:46.917Z,4.57
2019-02-04T12:53:15.679Z,3.00
2019-02-04T12:55:44.539Z,2.63
2019-02-04T12:58:13.462Z,6.13
2019-02-04T13:00:42.397Z,3.70
2019-02-04T13:03:11.342Z,2.77
2019-02-04T13:05:45.895Z,6.00
2019-02-04T13:08:14.840Z,2.53
2019-02-04T13:10:43.816Z,4.27
2019-02-04T13:13:15.106Z,5.87
2019-02-04T13:15:44.090Z,9.57
2019-02-04T13:18:13.611Z,9.67
2019-02-04T13:20:42.892Z,5.27
2019-02-04T13:23:11.829Z,5.80
2019-02-04T13:25:40.763Z,5.07
2019-02-04T13:28:16.348Z,5.22
2019-02-04T13:30:45.307Z,5.97
2019-02-04T13:33:14.416Z,6.60
2019-02-04T13:35:43.280Z,4.50
2019-02-04T13:38:12.399Z,5.50
2019-02-04T13:40:44.476Z,8.10
2019-02-04T13:43:13.813Z,8.80
2019-02-04T13:45:43.012Z,4.03
2019-02-04T13:48:12.610Z,8.93
2019-02-04T13:50:41.537Z,4.90
2019-02-04T13:53:10.806Z,5.17
2019-02-04T13:55:40.296Z,6.50
2019-02-04T13:58:09.549Z,6.20
2019-02-04T14:00:38.891Z,10.68
2019-02-04T14:03:08.755Z,7.27
2019-02-04T14:05:37.927Z,5.65
2019-02-04T14:08:07.392Z,8.20
2019-02-04T14:10:41.459Z,5.27
2019-02-04T14:13:10.825Z,4.93
2019-02-04T14:15:40.766Z,5.00
2019-02-04T14:18:10.328Z,5.53
2019-02-04T14:20:39.255Z,4.60
2019-02-04T14:23:08.193Z,4.22
2019-02-04T14:25:37.320Z,5.20
2019-02-04T14:28:06.560Z,6.03
2019-02-04T14:30:37.494Z,2.80
2019-02-04T14:33:07.021Z,5.83
2019-02-04T14:35:36.250Z,4.70
2019-02-04T14:38:06.987Z,5.90
2019-02-04T14:40:36.121Z,7.50
2019-02-04T14:43:35.614Z,4.80
2019-02-04T14:46:29.566Z,6.00
2019-02-04T14:49:40.379Z,5.47
2019-02-04T14:52:48.887Z,5.83
2019-02-04T14:56:00.917Z,6.65
2019-02-04T14:58:50.758Z,6.27
2019-02-04T15:01:56.160Z,4.80
2019-02-04T15:05:02.105Z,4.95
2019-02-04T15:08:04.270Z,4.53
2019-02-04T15:11:16.462Z,7.53
2019-02-04T15:14:29.652Z,7.90
2019-02-04T15:17:19.439Z,8.87
2019-02-04T15:20:12.278Z,6.45
2019-02-04T15:23:19.071Z,5.47
2019-02-04T15:26:29.902Z,5.63
2019-02-04T15:29:20.927Z,4.57
2019-02-04T15:32:15.736Z,4.97
2019-02-04T15:35:37.743Z,4.20
2019-02-04T15:39:12.084Z,5.17
2019-02-04T15:42:31.831Z,4.87
2019-02-04T15:45:27.736Z,7.43
2019-02-04T15:48:07.028Z,5.87
2019-02-04T15:50:45.237Z,7.20
2019-02-04T15:53:14.096Z,7.53
2019-02-04T15:55:43.149Z,11.67
2019-02-04T15:58:12.117Z,10.97
2019-02-04T16:00:40.925Z,7.30
2019-02-04T16:03:09.785Z,10.73
2019-02-04T16:05:38.701Z,6.67
2019-02-04T16:08:07.502Z,7.97
2019-02-04T16:10:36.372Z,5.70
2019-02-04T16:13:05.447Z,11.40
2019-02-04T16:15:34.236Z,9.47
2019-02-04T16:18:03.468Z,10.33
2019-02-04T16:20:32.245Z,9.73
2019-02-04T16:23:01.113Z,6.80
2019-02-04T16:25:30.034Z,6.93
2019-02-04T16:27:58.908Z,9.73
2019-02-04T16:30:27.843Z,10.90
2019-02-04T16:32:57.104Z,8.37
2019-02-04T16:35:25.885Z,14.43
2019-02-04T16:37:54.871Z,5.17
2019-02-04T16:40:23.974Z,6.20
2019-02-04T16:42:53.626Z,7.87
2019-02-04T16:45:23.491Z,12.77
2019-02-04T16:47:52.628Z,10.00
2019-02-04T16:50:23.915Z,8.47
2019-02-04T16:52:52.760Z,10.28
2019-02-04T16:55:21.705Z,9.30
2019-02-04T16:57:50.560Z,11.93
2019-02-04T17:00:22.169Z,12.70
2019-02-04T17:02:51.046Z,13.03
2019-02-04T17:05:20.703Z,7.60
2019-02-04T17:07:49.706Z,8.20
2019-02-04T17:10:19.849Z,9.20
2019-02-04T17:12:48.977Z,9.03
2019-02-04T17:15:17.913Z,8.63
2019-02-04T17:17:47.072Z,10.30
2019-02-04T17:20:19.116Z,11.43
2019-02-04T17:22:47.905Z,12.83
2019-02-04T17:25:16.776Z,12.33
2019-02-04T17:27:45.629Z,11.47
2019-02-04T17:30:17.526Z,9.47
2019-02-04T17:32:46.403Z,7.87
2019-02-04T17:35:15.457Z,13.53
2019-02-04T17:37:44.392Z,8.87
2019-02-04T17:40:16.302Z,9.43
2019-02-04T17:42:45.336Z,10.48
2019-02-04T17:45:15.452Z,9.23
2019-02-04T17:47:44.955Z,9.95
2019-02-04T17:50:15.347Z,15.97
2019-02-04T17:52:44.479Z,17.63
2019-02-04T17:55:16.389Z,11.70
2019-02-04T17:57:45.260Z,17.60
2019-02-04T18:00:20.760Z,16.03
2019-02-04T18:02:49.698Z,19.77
2019-02-04T18:05:18.896Z,17.03
2019-02-04T18:07:47.833Z,20.93
2019-02-04T18:10:17.146Z,20.30
2019-02-04T18:12:46.444Z,11.20
2019-02-04T18:15:17.461Z,12.37
2019-02-04T18:17:46.562Z,14.38
2019-02-04T18:20:16.616Z,16.50
2019-02-04T18:22:45.660Z,14.13
2019-02-04T18:25:15.494Z,25.05
2019-02-04T18:27:44.425Z,19.77
2019-02-04T18:30:16.083Z,15.40
2019-02-04T18:32:45.176Z,13.80
2019-02-04T18:35:14.792Z,12.77
2019-02-04T18:37:43.732Z,14.00
2019-02-04T18:40:14.568Z,20.25
2019-02-04T18:42:43.681Z,20.47
2019-02-04T18:45:15.950Z,18.00
2019-02-04T18:47:44.892Z,17.90
2019-02-04T18:50:15.389Z,15.30
2019-02-04T18:52:44.733Z,12.90
2019-02-04T18:55:16.441Z,14.13
2019-02-04T18:57:45.519Z,14.90
2019-02-04T19:00:17.460Z,13.67
2019-02-04T19:02:46.401Z,15.30
2019-02-04T19:05:15.629Z,17.03
2019-02-04T19:07:44.520Z,17.43
2019-02-04T19:10:14.891Z,10.80
2019-02-04T19:12:43.812Z,17.93
2019-02-04T19:15:15.467Z,18.10
2019-02-04T19:17:44.423Z,15.90
2019-02-04T19:20:15.758Z,15.80
2019-02-04T19:22:44.615Z,17.37
2019-02-04T19:25:14.433Z,17.95
2019-02-04T19:27:43.253Z,16.47
2019-02-04T19:30:30.043Z,14.67
2019-02-04T19:32:59.212Z,19.83
2019-02-04T19:35:29.036Z,16.93
2019-02-04T19:37:57.901Z,17.40
2019-02-04T19:40:26.754Z,11.23
2019-02-04T19:42:55.628Z,15.63
2019-02-04T19:45:24.646Z,16.17
2019-02-04T19:47:53.784Z,18.90
2019-02-04T19:50:28.080Z,20.67
2019-02-04T19:52:57.044Z,20.07
2019-02-04T19:55:26.182Z,12.57
2019-02-04T19:57:55.135Z,16.63
2019-02-04T20:00:24.290Z,13.70
2019-02-04T20:02:53.252Z,24.73
2019-02-04T20:05:22.998Z,16.27
2019-02-04T20:07:52.392Z,22.00
2019-02-04T20:10:23.883Z,17.45
2019-02-04T20:12:52.824Z,13.13
2019-02-04T20:15:26.719Z,17.67
2019-02-04T20:17:55.646Z,17.70
2019-02-04T20:20:25.537Z,21.07
2019-02-04T20:22:54.887Z,14.33
2019-02-04T20:25:25.805Z,24.60
2019-02-04T20:27:54.673Z,29.87
2019-02-04T20:30:26.582Z,21.53
2019-02-04T20:32:55.439Z,16.37
2019-02-04T20:35:24.373Z,17.67
2019-02-04T20:37:53.465Z,14.05
2019-02-04T20:40:22.674Z,15.30
2019-02-04T20:42:51.701Z,21.13
2019-02-04T20:45:22.422Z,26.47
2019-02-04T20:47:51.336Z,15.30
2019-02-04T20:50:28.793Z,19.03
2019-02-04T20:52:57.725Z,23.12
2019-02-04T20:55:26.726Z,23.20
2019-02-04T20:57:55.618Z,13.80
2019-02-04T21:00:26.326Z,16.60
2019-02-04T21:02:55.177Z,18.98
2019-02-04T21:05:24.516Z,16.57
2019-02-04T21:07:53.457Z,19.77
2019-02-04T21:10:23.782Z,13.80
2019-02-04T21:12:53.225Z,23.57
2019-02-04T21:15:22.743Z,11.03
2019-02-04T21:17:51.850Z,17.70
2019-02-04T21:20:22.471Z,14.75
2019-02-04T21:22:51.267Z,14.73
2019-02-04T21:25:20.456Z,19.12
2019-02-04T21:27:49.951Z,12.50
2019-02-04T21:30:24.429Z,19.53
2019-02-04T21:32:53.359Z,17.25
2019-02-04T21:35:22.419Z,12.47
2019-02-04T21:37:51.257Z,13.73
2019-02-04T21:40:20.605Z,17.20
2019-02-04T21:42:49.676Z,12.73
2019-02-04T21:45:19.901Z,10.57
2019-02-04T21:47:48.781Z,10.53
2019-02-04T21:50:19.669Z,13.20
2019-02-04T21:52:48.611Z,11.30
2019-02-04T21:55:18.490Z,8.47
2019-02-04T21:57:47.656Z,13.00
2019-02-04T22:02:39.208Z,15.28
2019-02-04T22:05:10.413Z,17.00
2019-02-04T22:07:39.372Z,16.07
2019-02-04T22:10:12.230Z,10.63
2019-02-04T22:12:41.081Z,14.73
2019-02-04T22:15:10.055Z,30.37
2019-02-04T22:17:38.834Z,14.00
2019-02-04T22:20:08.734Z,13.23
2019-02-04T22:22:37.553Z,10.43
2019-02-04T22:25:06.848Z,10.53
2019-02-04T22:27:35.923Z,11.70
2019-02-04T22:30:06.806Z,12.33
2019-02-04T22:32:35.883Z,15.67
2019-02-04T22:35:05.433Z,14.57
2019-02-04T22:37:34.436Z,12.82
2019-02-04T22:40:03.530Z,15.53
2019-02-04T22:42:32.309Z,16.47
2019-02-04T22:45:01.110Z,14.53
2019-02-04T22:47:29.892Z,13.37
2019-02-04T22:49:58.681Z,14.17
2019-02-04T22:52:27.542Z,13.18
2019-02-04T22:54:56.397Z,13.67
2019-02-04T22:57:25.257Z,14.60
2019-02-04T22:59:54.216Z,14.40
2019-02-04T23:02:23.159Z,12.05
2019-02-04T23:04:51.963Z,19.50
2019-02-04T23:07:20.825Z,17.70
2019-02-04T23:09:49.609Z,17.57
2019-02-04T23:12:18.575Z,18.55
2019-02-04T23:14:47.671Z,15.53
2019-02-04T23:17:16.460Z,18.23
2019-02-04T23:19:45.303Z,15.00
2019-02-04T23:22:14.278Z,15.60
2019-02-04T23:24:43.068Z,12.97
2019-02-04T23:27:11.874Z,14.30
2019-02-04T23:29:40.842Z,16.33
2019-02-04T23:32:09.638Z,17.00
2019-02-04T23:34:38.672Z,15.93
2019-02-04T23:37:07.550Z,12.10
2019-02-04T23:39:36.338Z,12.17
2019-02-04T23:42:05.289Z,11.30
2019-02-04T23:44:34.586Z,14.77
2019-02-04T23:47:03.469Z,16.87
2019-02-04T23:49:32.355Z,14.87
2019-02-04T23:52:01.232Z,11.65
2019-02-04T23:54:30.006Z,19.07
2019-02-04T23:56:58.807Z,14.90
2019-02-04T23:59:28.038Z,14.67
